PWSweather.com
Personal Weather Stations
Station Observations
SEVANL01
SevillaES 41004

SevillaES 41004

Lat: 37.383633, Lon: -5.985787

Elevation: 19.685

Station Type: Davis Vantage Pro2

Latest ConditionsUpdated 10:20:01 PM GMT+01:01 Thursday, Apr 17, 2014
Currently Today's Max Today's Min Today's Average
Temperature 72.0°F22.2°C 89.2°F31.8°C 60.4°F15.8°C 73.1°F22.8°C
Dew Point 50.6°F10.3°C 60.8°F16.0°C 50.6°F10.3°C 56.9°F13.8°C
Winds 2.0 mph SW3.2 kmh SW 8.0 mph SW12.9 kmh SW - 1.6 mph 2.6 kmh
Wind Gusts 8.0 mph12.9 kmh 16.0 mph25.7 kmh - -
Humidity 47% 87% 29% 61%
Pressure 29.97 in1014.9 mb 30.02 in1016.6 mb 29.91 in1012.9 mb -
Hour Temp Dew Point Humidity Winds Wind Gusts Pressure Precip Precip Rate Daily Precip Total
10:20 PM 72.0°F22.2°C 50.6°F10.3°C 47% 2.0 mph SW3.2 kmh SW 8.0 mph12.9 kmh 29.97 in1014.9 mb 0.00 in0.0 mm 0.00 in/hr0.0 mm/hr 0.00 in0.0 mm
10:00 PM 72.1°F22.3°C 50.8°F10.4°C 47% 3.0 mph SW4.8 kmh SW 8.0 mph12.9 kmh 29.97 in1014.9 mb 0.00 in0.0 mm 0.00 in/hr0.0 mm/hr 0.00 in0.0 mm
09:40 PM 72.9°F22.7°C 50.9°F10.5°C 46% 3.0 mph WSW4.8 kmh WSW 8.0 mph12.9 kmh 29.96 in1014.6 mb 0.00 in0.0 mm 0.00 in/hr0.0 mm/hr 0.00 in0.0 mm
09:20 PM 73.6°F23.1°C 50.9°F10.5°C 45% 3.0 mph SW4.8 kmh SW 9.0 mph14.5 kmh 29.95 in1014.2 mb 0.00 in0.0 mm 0.00 in/hr0.0 mm/hr 0.00 in0.0 mm
09:00 PM 74.5°F23.6°C 51.1°F10.6°C 44% 4.0 mph SW6.4 kmh SW 11.0 mph17.7 kmh 29.94 in1013.9 mb 0.00 in0.0 mm 0.00 in/hr0.0 mm/hr 0.00 in0.0 mm
08:40 PM 75.2°F24.0°C 51.8°F11.0°C 44% 4.0 mph SW6.4 kmh SW 11.0 mph17.7 kmh 29.94 in1013.9 mb 0.00 in0.0 mm 0.00 in/hr0.0 mm/hr 0.00 in0.0 mm
08:20 PM 76.5°F24.7°C 52.9°F11.6°C 44% 4.0 mph SW6.4 kmh SW 11.0 mph17.7 kmh 29.93 in1013.5 mb 0.00 in0.0 mm 0.00 in/hr0.0 mm/hr 0.00 in0.0 mm
08:00 PM 77.5°F25.3°C 52.6°F11.4°C 42% 5.0 mph SW8.0 kmh SW 12.0 mph19.3 kmh 29.92 in1013.2 mb 0.00 in0.0 mm 0.00 in/hr0.0 mm/hr 0.00 in0.0 mm
07:40 PM 79.0°F26.1°C 53.3°F11.8°C 41% 5.0 mph SW8.0 kmh SW 14.0 mph22.5 kmh 29.91 in1012.9 mb 0.00 in0.0 mm 0.00 in/hr0.0 mm/hr 0.00 in0.0 mm
07:20 PM 80.4°F26.9°C 54.6°F12.6°C 41% 6.0 mph SW9.7 kmh SW 12.0 mph19.3 kmh 29.91 in1012.9 mb 0.00 in0.0 mm 0.00 in/hr0.0 mm/hr 0.00 in0.0 mm
07:00 PM 81.9°F27.7°C 55.2°F12.9°C 40% 5.0 mph SW8.0 kmh SW 14.0 mph22.5 kmh 29.91 in1012.9 mb 0.00 in0.0 mm 0.00 in/hr0.0 mm/hr 0.00 in0.0 mm
06:40 PM 82.4°F28.0°C 55.7°F13.2°C 40% 8.0 mph SW12.9 kmh SW 16.0 mph25.7 kmh 29.91 in1012.9 mb 0.00 in0.0 mm 0.00 in/hr0.0 mm/hr 0.00 in0.0 mm
06:20 PM 83.7°F28.7°C 56.8°F13.8°C 40% 7.0 mph SW11.3 kmh SW 13.0 mph20.9 kmh 29.91 in1012.9 mb 0.00 in0.0 mm 0.00 in/hr0.0 mm/hr 0.00 in0.0 mm
06:00 PM 84.9°F29.4°C 57.2°F14.0°C 39% 7.0 mph SW11.3 kmh SW 14.0 mph22.5 kmh 29.91 in1012.9 mb 0.00 in0.0 mm 0.00 in/hr0.0 mm/hr 0.00 in0.0 mm
05:40 PM 85.3°F29.6°C 57.5°F14.2°C 39% 5.0 mph SW8.0 kmh SW 16.0 mph25.7 kmh 29.91 in1012.9 mb 0.00 in0.0 mm 0.00 in/hr0.0 mm/hr 0.00 in0.0 mm
05:20 PM 88.0°F31.1°C 54.4°F12.4°C 32% 4.0 mph SW6.4 kmh SW 9.0 mph14.5 kmh 29.91 in1012.9 mb 0.00 in0.0 mm 0.00 in/hr0.0 mm/hr 0.00 in0.0 mm
05:00 PM 88.7°F31.5°C 54.2°F12.3°C 31% 2.0 mph SW3.2 kmh SW 6.0 mph9.7 kmh 29.91 in1012.9 mb 0.00 in0.0 mm 0.00 in/hr0.0 mm/hr 0.00 in0.0 mm
04:40 PM 88.2°F31.2°C 54.6°F12.6°C 32% 3.0 mph SW4.8 kmh SW 8.0 mph12.9 kmh 29.91 in1012.9 mb 0.00 in0.0 mm 0.00 in/hr0.0 mm/hr 0.00 in0.0 mm
04:20 PM 88.9°F31.6°C 52.5°F11.4°C 29% 1.0 mph S1.6 kmh S 8.0 mph12.9 kmh 29.91 in1012.9 mb 0.00 in0.0 mm 0.00 in/hr0.0 mm/hr 0.00 in0.0 mm
04:00 PM 89.2°F31.8°C 53.7°F12.1°C 30% 1.0 mph SW1.6 kmh SW 6.0 mph9.7 kmh 29.92 in1013.2 mb 0.00 in0.0 mm 0.00 in/hr0.0 mm/hr 0.00 in0.0 mm
03:40 PM 88.0°F31.1°C 52.7°F11.5°C 30% 1.0 mph NE1.6 kmh NE 5.0 mph8.0 kmh 29.92 in1013.2 mb 0.00 in0.0 mm 0.00 in/hr0.0 mm/hr 0.00 in0.0 mm
03:20 PM 87.6°F30.9°C 53.2°F11.8°C 31% 1.0 mph SSE1.6 kmh SSE 6.0 mph9.7 kmh 29.93 in1013.5 mb 0.00 in0.0 mm 0.00 in/hr0.0 mm/hr 0.00 in0.0 mm
03:00 PM 86.4°F30.2°C 53.9°F12.2°C 33% 1.0 mph SE1.6 kmh SE 8.0 mph12.9 kmh 29.94 in1013.9 mb 0.00 in0.0 mm 0.00 in/hr0.0 mm/hr 0.00 in0.0 mm
02:40 PM 86.5°F30.3°C 55.6°F13.1°C 35% 1.0 mph E1.6 kmh E 3.0 mph4.8 kmh 29.94 in1013.9 mb 0.00 in0.0 mm 0.00 in/hr0.0 mm/hr 0.00 in0.0 mm
02:20 PM 85.6°F29.8°C 55.6°F13.1°C 36% 1.0 mph SE1.6 kmh SE 6.0 mph9.7 kmh 29.95 in1014.2 mb 0.00 in0.0 mm 0.00 in/hr0.0 mm/hr 0.00 in0.0 mm
02:00 PM 84.7°F29.3°C 57.0°F13.9°C 39% 1.0 mph WSW1.6 kmh WSW 6.0 mph9.7 kmh 29.96 in1014.6 mb 0.00 in0.0 mm 0.00 in/hr0.0 mm/hr 0.00 in0.0 mm
01:40 PM 83.7°F28.7°C 58.1°F14.5°C 42% 1.0 mph ESE1.6 kmh ESE 8.0 mph12.9 kmh 29.97 in1014.9 mb 0.00 in0.0 mm 0.00 in/hr0.0 mm/hr 0.00 in0.0 mm
01:20 PM 83.7°F28.7°C 58.8°F14.9°C 43% 1.0 mph ENE1.6 kmh ENE 5.0 mph8.0 kmh 29.97 in1014.9 mb 0.00 in0.0 mm 0.00 in/hr0.0 mm/hr 0.00 in0.0 mm
01:00 PM 82.9°F28.3°C 60.0°F15.6°C 46% 1.0 mph NNW1.6 kmh NNW 4.0 mph6.4 kmh 29.98 in1015.2 mb 0.00 in0.0 mm 0.00 in/hr0.0 mm/hr 0.00 in0.0 mm
12:40 PM 82.2°F27.9°C 60.6°F15.9°C 48% Calm Calm 7.0 mph11.3 kmh 29.98 in1015.2 mb 0.00 in0.0 mm 0.00 in/hr0.0 mm/hr 0.00 in0.0 mm
12:20 PM 80.1°F26.7°C 60.3°F15.7°C 51% 2.0 mph NNE3.2 kmh NNE 7.0 mph11.3 kmh 29.99 in1015.6 mb 0.00 in0.0 mm 0.00 in/hr0.0 mm/hr 0.00 in0.0 mm
12:00 PM 79.0°F26.1°C 60.4°F15.8°C 53% Calm Calm 7.0 mph11.3 kmh 30.00 in1015.9 mb 0.00 in0.0 mm 0.00 in/hr0.0 mm/hr 0.00 in0.0 mm
11:40 AM 77.2°F25.1°C 60.8°F16.0°C 57% 2.0 mph NE3.2 kmh NE 10.0 mph16.1 kmh 30.00 in1015.9 mb 0.00 in0.0 mm 0.00 in/hr0.0 mm/hr 0.00 in0.0 mm
11:20 AM 75.6°F24.2°C 60.7°F15.9°C 60% 2.0 mph ENE3.2 kmh ENE 7.0 mph11.3 kmh 30.01 in1016.3 mb 0.00 in0.0 mm 0.00 in/hr0.0 mm/hr 0.00 in0.0 mm
11:00 AM 74.1°F23.4°C 60.7°F15.9°C 63% 1.0 mph NE1.6 kmh NE 8.0 mph12.9 kmh 30.01 in1016.3 mb 0.00 in0.0 mm 0.00 in/hr0.0 mm/hr 0.00 in0.0 mm
10:40 AM 72.5°F22.5°C 60.5°F15.8°C 66% 1.0 mph NE1.6 kmh NE 9.0 mph14.5 kmh 30.01 in1016.3 mb 0.00 in0.0 mm 0.00 in/hr0.0 mm/hr 0.00 in0.0 mm
10:20 AM 71.1°F21.7°C 60.4°F15.8°C 69% Calm Calm 6.0 mph9.7 kmh 30.01 in1016.3 mb 0.00 in0.0 mm 0.00 in/hr0.0 mm/hr 0.00 in0.0 mm
10:00 AM 69.4°F20.8°C 60.0°F15.6°C 72% Calm Calm 5.0 mph8.0 kmh 30.01 in1016.3 mb 0.00 in0.0 mm 0.00 in/hr0.0 mm/hr 0.00 in0.0 mm
09:40 AM 68.4°F20.2°C 60.1°F15.6°C 75% 1.0 mph NE1.6 kmh NE 5.0 mph8.0 kmh 30.01 in1016.3 mb 0.00 in0.0 mm 0.00 in/hr0.0 mm/hr 0.00 in0.0 mm
09:20 AM 67.3°F19.6°C 59.5°F15.3°C 76% 1.0 mph NE1.6 kmh NE 5.0 mph8.0 kmh 30.01 in1016.3 mb 0.00 in0.0 mm 0.00 in/hr0.0 mm/hr 0.00 in0.0 mm
09:00 AM 66.0°F18.9°C 59.0°F15.0°C 78% 1.0 mph NE1.6 kmh NE 8.0 mph12.9 kmh 30.00 in1015.9 mb 0.00 in0.0 mm 0.00 in/hr0.0 mm/hr 0.00 in0.0 mm
08:40 AM 64.8°F18.2°C 58.4°F14.7°C 80% Calm Calm 4.0 mph6.4 kmh 30.00 in1015.9 mb 0.00 in0.0 mm 0.00 in/hr0.0 mm/hr 0.00 in0.0 mm
08:20 AM 63.7°F17.6°C 58.1°F14.5°C 82% 1.0 mph N1.6 kmh N 5.0 mph8.0 kmh 30.00 in1015.9 mb 0.00 in0.0 mm 0.00 in/hr0.0 mm/hr 0.00 in0.0 mm
08:00 AM 61.9°F16.6°C 57.6°F14.2°C 86% 1.0 mph N1.6 kmh N 6.0 mph9.7 kmh 30.01 in1016.3 mb 0.00 in0.0 mm 0.00 in/hr0.0 mm/hr 0.00 in0.0 mm
07:40 AM 60.6°F15.9°C 56.7°F13.7°C 87% 1.0 mph N1.6 kmh N 4.0 mph6.4 kmh 30.00 in1015.9 mb 0.00 in0.0 mm 0.00 in/hr0.0 mm/hr 0.00 in0.0 mm
07:20 AM 60.4°F15.8°C 56.2°F13.4°C 86% Calm Calm 4.0 mph6.4 kmh 30.00 in1015.9 mb 0.00 in0.0 mm 0.00 in/hr0.0 mm/hr 0.00 in0.0 mm
07:00 AM 61.2°F16.2°C 56.9°F13.8°C 86% Calm Calm 2.0 mph3.2 kmh 30.01 in1016.3 mb 0.00 in0.0 mm 0.00 in/hr0.0 mm/hr 0.00 in0.0 mm
06:40 AM 61.3°F16.3°C 57.1°F13.9°C 86% Calm Calm 1.0 mph1.6 kmh 30.00 in1015.9 mb 0.00 in0.0 mm 0.00 in/hr0.0 mm/hr 0.00 in0.0 mm
06:20 AM 61.9°F16.6°C 57.3°F14.1°C 85% Calm Calm 1.0 mph1.6 kmh 30.00 in1015.9 mb 0.00 in0.0 mm 0.00 in/hr0.0 mm/hr 0.00 in0.0 mm
06:00 AM 62.2°F16.8°C 57.7°F14.3°C 85% Calm Calm 1.0 mph1.6 kmh 30.00 in1015.9 mb 0.00 in0.0 mm 0.00 in/hr0.0 mm/hr 0.00 in0.0 mm
05:40 AM 62.8°F17.1°C 57.9°F14.4°C 84% Calm Calm -- 30.00 in1015.9 mb 0.00 in0.0 mm 0.00 in/hr0.0 mm/hr 0.00 in0.0 mm
05:20 AM 62.8°F17.1°C 57.9°F14.4°C 84% Calm Calm -- 30.00 in1015.9 mb 0.00 in0.0 mm 0.00 in/hr0.0 mm/hr 0.00 in0.0 mm
05:00 AM 63.0°F17.2°C 58.0°F14.4°C 84% Calm Calm -- 29.99 in1015.6 mb 0.00 in0.0 mm 0.00 in/hr0.0 mm/hr 0.00 in0.0 mm
04:40 AM 62.8°F17.1°C 57.9°F14.4°C 84% Calm Calm -- 30.00 in1015.9 mb 0.00 in0.0 mm 0.00 in/hr0.0 mm/hr 0.00 in0.0 mm
04:20 AM 62.8°F17.1°C 57.9°F14.4°C 84% Calm Calm 1.0 mph1.6 kmh 30.00 in1015.9 mb 0.00 in0.0 mm 0.00 in/hr0.0 mm/hr 0.00 in0.0 mm
04:00 AM 62.8°F17.1°C 57.9°F14.4°C 84% Calm Calm -- 30.01 in1016.3 mb 0.00 in0.0 mm 0.00 in/hr0.0 mm/hr 0.00 in0.0 mm
03:40 AM 63.0°F17.2°C 58.0°F14.4°C 84% Calm Calm -- 30.00 in1015.9 mb 0.00 in0.0 mm 0.00 in/hr0.0 mm/hr 0.00 in0.0 mm
03:20 AM 63.0°F17.2°C 58.0°F14.4°C 84% Calm Calm -- 30.00 in1015.9 mb 0.00 in0.0 mm 0.00 in/hr0.0 mm/hr 0.00 in0.0 mm
03:00 AM 62.8°F17.1°C 58.2°F14.6°C 85% Calm Calm -- 30.00 in1015.9 mb 0.00 in0.0 mm 0.00 in/hr0.0 mm/hr 0.00 in0.0 mm
02:40 AM 63.0°F17.2°C 58.0°F14.4°C 84% Calm Calm -- 30.01 in1016.3 mb 0.00 in0.0 mm 0.00 in/hr0.0 mm/hr 0.00 in0.0 mm
02:20 AM 63.3°F17.4°C 58.4°F14.7°C 84% Calm Calm -- 30.01 in1016.3 mb 0.00 in0.0 mm 0.00 in/hr0.0 mm/hr 0.00 in0.0 mm
02:00 AM 63.3°F17.4°C 58.4°F14.7°C 84% Calm Calm -- 30.02 in1016.6 mb 0.00 in0.0 mm 0.00 in/hr0.0 mm/hr 0.00 in0.0 mm
01:40 AM 63.9°F17.7°C 58.6°F14.8°C 83% Calm Calm 2.0 mph3.2 kmh 30.02 in1016.6 mb 0.00 in0.0 mm 0.00 in/hr0.0 mm/hr 0.00 in0.0 mm
01:20 AM 64.6°F18.1°C 59.3°F15.2°C 83% Calm Calm 3.0 mph4.8 kmh 30.02 in1016.6 mb 0.00 in0.0 mm 0.00 in/hr0.0 mm/hr 0.00 in0.0 mm
01:00 AM 65.1°F18.4°C 59.5°F15.3°C 82% Calm Calm 1.0 mph1.6 kmh 30.02 in1016.6 mb 0.00 in0.0 mm 0.00 in/hr0.0 mm/hr 0.00 in0.0 mm
12:40 AM 65.3°F18.5°C 59.7°F15.4°C 82% Calm Calm 3.0 mph4.8 kmh 30.02 in1016.6 mb 0.00 in0.0 mm 0.00 in/hr0.0 mm/hr 0.00 in0.0 mm
12:20 AM 65.7°F18.7°C 59.7°F15.4°C 81% Calm Calm 4.0 mph6.4 kmh 30.02 in1016.6 mb 0.00 in0.0 mm 0.00 in/hr0.0 mm/hr 0.00 in0.0 mm
12:00 AM 66.6°F19.2°C 59.8°F15.4°C 79% 1.0 mph SSW1.6 kmh SSW 3.0 mph4.8 kmh 30.02 in1016.6 mb 0.00 in0.0 mm 0.00 in/hr0.0 mm/hr 0.00 in0.0 mm